createdAt,value
2022-08-17T00:00:43.099Z,20.16
2022-08-17T00:03:17.188Z,20.20
2022-08-17T00:05:48.990Z,20.22
2022-08-17T00:08:18.042Z,20.19
2022-08-17T00:10:46.330Z,20.15
2022-08-17T00:13:32.073Z,20.14
2022-08-17T00:16:02.593Z,20.13
2022-08-17T00:19:01.382Z,20.06
2022-08-17T00:21:23.901Z,20.06
2022-08-17T00:23:53.235Z,20.04
2022-08-17T00:26:43.643Z,20.01
2022-08-17T00:29:09.165Z,19.98
2022-08-17T00:31:37.540Z,19.93
2022-08-17T00:34:05.821Z,19.91
2022-08-17T00:36:33.597Z,19.89
2022-08-17T00:39:01.428Z,19.86
2022-08-17T00:41:31.558Z,19.85
2022-08-17T00:44:01.797Z,19.85
2022-08-17T00:46:32.568Z,19.84
2022-08-17T00:49:00.760Z,19.87
2022-08-17T00:51:31.347Z,19.83
2022-08-17T00:54:20.419Z,19.85
2022-08-17T00:56:53.232Z,19.84
2022-08-17T00:59:22.976Z,19.85
2022-08-17T01:01:51.162Z,19.83
2022-08-17T01:04:19.566Z,19.80
2022-08-17T01:06:50.596Z,19.72
2022-08-17T01:09:21.731Z,19.68
2022-08-17T01:11:53.381Z,19.68
2022-08-17T01:14:24.937Z,19.66
2022-08-17T01:16:57.436Z,19.67
2022-08-17T01:19:35.354Z,19.66
2022-08-17T01:22:12.074Z,19.67
2022-08-17T01:24:46.011Z,19.68
2022-08-17T01:27:14.808Z,19.72
2022-08-17T01:29:53.145Z,19.73
2022-08-17T01:32:23.179Z,19.70
2022-08-17T01:34:51.513Z,19.67
2022-08-17T01:37:22.702Z,19.66
2022-08-17T01:39:53.793Z,19.66
2022-08-17T01:42:49.058Z,19.66
2022-08-17T01:45:20.022Z,19.62
2022-08-17T01:47:47.764Z,19.61
2022-08-17T01:50:18.157Z,19.62
2022-08-17T01:52:51.007Z,19.59
2022-08-17T01:55:21.526Z,19.55
2022-08-17T01:57:54.261Z,19.52
2022-08-17T02:00:22.029Z,19.51
2022-08-17T02:02:49.933Z,19.53
2022-08-17T02:05:18.176Z,19.50
2022-08-17T02:07:59.345Z,19.51
2022-08-17T02:10:34.007Z,19.50
2022-08-17T02:13:03.456Z,19.46
2022-08-17T02:15:31.426Z,19.42
2022-08-17T02:17:59.199Z,19.39
2022-08-17T02:20:41.877Z,19.35
2022-08-17T02:23:12.031Z,19.32
2022-08-17T02:25:40.215Z,19.29
2022-08-17T02:28:11.043Z,19.31
2022-08-17T02:31:00.836Z,19.35
2022-08-17T02:33:41.728Z,19.38
2022-08-17T02:36:10.380Z,19.38
2022-08-17T02:38:38.946Z,19.36
2022-08-17T02:41:06.838Z,19.39
2022-08-17T02:43:34.692Z,19.37
2022-08-17T02:46:02.445Z,19.31
2022-08-17T02:48:31.186Z,19.38
2022-08-17T02:51:01.889Z,19.35
2022-08-17T02:53:35.882Z,19.30
2022-08-17T02:56:04.286Z,19.24
2022-08-17T02:58:34.991Z,19.17
2022-08-17T03:01:05.303Z,19.15
2022-08-17T03:03:33.137Z,19.16
2022-08-17T03:06:00.869Z,19.19
2022-08-17T03:08:28.624Z,19.21
2022-08-17T03:11:01.711Z,19.22
2022-08-17T03:13:29.592Z,19.23
2022-08-17T03:15:57.662Z,19.18
2022-08-17T03:18:27.884Z,19.13
2022-08-17T03:20:56.785Z,19.09
2022-08-17T03:23:30.399Z,19.05
2022-08-17T03:25:58.321Z,19.03
2022-08-17T03:28:26.402Z,19.01
2022-08-17T03:30:54.186Z,19.00
2022-08-17T03:33:21.991Z,19.04
2022-08-17T03:35:49.830Z,19.08
2022-08-17T03:38:20.106Z,19.05
2022-08-17T03:40:56.412Z,18.98
2022-08-17T03:43:26.376Z,18.99
2022-08-17T03:46:28.100Z,19.00
2022-08-17T03:49:19.078Z,19.02
2022-08-17T03:52:05.493Z,19.11
2022-08-17T03:54:52.092Z,19.16
2022-08-17T03:57:24.808Z,19.20
2022-08-17T03:59:53.937Z,19.24
2022-08-17T04:02:24.389Z,19.24
2022-08-17T04:04:52.473Z,19.26
2022-08-17T04:07:21.348Z,19.26
2022-08-17T04:09:49.124Z,19.25
2022-08-17T04:12:18.087Z,19.24
2022-08-17T04:14:53.699Z,19.21
2022-08-17T04:17:27.521Z,19.17
2022-08-17T04:19:58.515Z,19.13
2022-08-17T04:22:33.378Z,19.10
2022-08-17T04:25:20.001Z,19.06
2022-08-17T04:27:52.724Z,19.02
2022-08-17T04:30:20.612Z,19.01
2022-08-17T04:33:04.895Z,19.03
2022-08-17T04:35:42.239Z,19.02
2022-08-17T04:38:26.371Z,19.03
2022-08-17T04:41:15.945Z,19.03
2022-08-17T04:43:44.617Z,19.04
2022-08-17T04:46:15.719Z,19.01
2022-08-17T04:48:54.333Z,19.02
2022-08-17T04:51:49.678Z,19.01
2022-08-17T04:54:24.184Z,19.03
2022-08-17T04:56:56.934Z,19.01
2022-08-17T04:59:27.406Z,18.99
2022-08-17T05:01:55.824Z,19.00
2022-08-17T05:04:34.287Z,19.01
2022-08-17T05:07:06.111Z,19.05
2022-08-17T05:09:33.860Z,19.09
2022-08-17T05:12:05.259Z,19.13
2022-08-17T05:14:33.954Z,19.15
2022-08-17T05:17:07.027Z,19.20
2022-08-17T05:19:39.983Z,19.22
2022-08-17T05:22:10.717Z,19.29
2022-08-17T05:24:43.468Z,19.37
2022-08-17T05:27:21.070Z,19.42
2022-08-17T05:29:51.324Z,19.50
2022-08-17T05:32:38.257Z,19.60
2022-08-17T05:35:08.245Z,19.70
2022-08-17T05:37:36.009Z,19.79
2022-08-17T05:40:11.516Z,19.85
2022-08-17T05:42:39.323Z,19.92
2022-08-17T05:45:07.979Z,20.01
2022-08-17T05:47:45.258Z,20.07
2022-08-17T05:50:32.961Z,20.16
2022-08-17T05:53:12.295Z,20.25
2022-08-17T05:56:29.156Z,20.37
2022-08-17T05:59:09.215Z,20.47
2022-08-17T06:01:58.858Z,20.63
2022-08-17T06:04:32.293Z,20.73
2022-08-17T06:07:28.854Z,20.85
2022-08-17T06:10:05.117Z,20.96
2022-08-17T06:13:01.173Z,21.04
2022-08-17T06:16:32.930Z,21.10
2022-08-17T06:19:35.065Z,21.18
2022-08-17T06:22:05.184Z,21.23
2022-08-17T06:24:42.284Z,21.28
2022-08-17T06:27:31.394Z,21.29
2022-08-17T06:30:05.235Z,21.31
2022-08-17T06:32:33.193Z,21.32
2022-08-17T06:35:01.556Z,21.35
2022-08-17T06:37:38.321Z,21.36
2022-08-17T06:40:21.494Z,21.39
2022-08-17T06:43:17.064Z,21.44
2022-08-17T06:45:50.265Z,21.54
2022-08-17T06:49:11.553Z,21.63
2022-08-17T06:51:44.732Z,21.72
2022-08-17T06:54:26.607Z,21.78
2022-08-17T06:57:07.564Z,21.81
2022-08-17T06:59:59.898Z,21.85
2022-08-17T07:02:51.521Z,21.92
2022-08-17T07:05:49.608Z,22.07
2022-08-17T07:08:58.518Z,22.23
2022-08-17T07:11:33.233Z,22.42
2022-08-17T07:14:17.508Z,22.49
2022-08-17T07:17:18.309Z,22.55
2022-08-17T07:19:49.716Z,22.56
2022-08-17T07:22:26.300Z,22.63
2022-08-17T07:24:59.443Z,22.74
2022-08-17T07:27:29.723Z,22.86
2022-08-17T07:30:06.765Z,22.99
2022-08-17T07:32:49.008Z,23.14
2022-08-17T07:35:31.228Z,23.24
2022-08-17T07:38:31.755Z,23.39
2022-08-17T07:41:03.566Z,23.57
2022-08-17T07:43:57.808Z,23.72
2022-08-17T07:46:44.987Z,23.83
2022-08-17T07:49:15.932Z,23.97
2022-08-17T07:51:43.702Z,24.14
2022-08-17T07:54:17.740Z,24.26
2022-08-17T07:56:56.411Z,24.41
2022-08-17T07:59:33.695Z,24.51
2022-08-17T08:02:07.237Z,24.59
2022-08-17T08:07:29.743Z,24.83
2022-08-17T08:10:01.730Z,24.99
2022-08-17T08:12:34.613Z,25.14
2022-08-17T08:15:10.537Z,25.34
2022-08-17T08:17:53.157Z,25.50
2022-08-17T08:20:52.763Z,25.51
2022-08-17T08:23:43.317Z,25.64
2022-08-17T08:26:29.821Z,25.84
2022-08-17T08:29:42.410Z,25.91
2022-08-17T08:32:20.723Z,26.16
2022-08-17T08:35:02.511Z,26.39
2022-08-17T08:37:43.337Z,26.35
2022-08-17T08:40:38.249Z,26.35
2022-08-17T08:43:42.119Z,26.20
2022-08-17T08:46:19.650Z,26.18
2022-08-17T08:49:12.438Z,26.24
2022-08-17T08:52:00.013Z,26.42
2022-08-17T08:54:36.559Z,26.64
2022-08-17T08:57:42.669Z,26.81
2022-08-17T09:00:24.403Z,26.91
2022-08-17T09:03:01.466Z,27.08
2022-08-17T09:05:56.071Z,27.23
2022-08-17T09:08:54.935Z,27.25
2022-08-17T09:11:32.231Z,27.38
2022-08-17T09:14:05.976Z,27.52
2022-08-17T09:17:14.035Z,27.72
2022-08-17T09:19:46.507Z,27.73
2022-08-17T09:22:35.512Z,27.78
2022-08-17T09:25:29.620Z,27.85
2022-08-17T09:28:08.913Z,27.77
2022-08-17T09:30:46.633Z,27.73
2022-08-17T09:33:18.355Z,27.84
2022-08-17T09:36:00.145Z,27.89
2022-08-17T09:38:52.194Z,28.01
2022-08-17T09:41:48.593Z,28.17
2022-08-17T09:44:57.986Z,28.25
2022-08-17T09:47:33.203Z,28.20
2022-08-17T09:50:06.232Z,28.47
2022-08-17T09:52:34.221Z,28.69
2022-08-17T09:55:03.002Z,28.77
2022-08-17T09:57:32.199Z,28.84
2022-08-17T10:00:32.522Z,28.89
2022-08-17T10:03:17.606Z,29.05
2022-08-17T10:05:57.245Z,29.14
2022-08-17T10:08:33.757Z,29.19
2022-08-17T10:11:15.807Z,29.29
2022-08-17T10:13:59.534Z,29.34
2022-08-17T10:16:42.459Z,29.42
2022-08-17T10:19:16.818Z,29.56
2022-08-17T10:22:32.362Z,29.72
2022-08-17T10:25:23.480Z,29.67
2022-08-17T10:27:56.778Z,29.73
2022-08-17T10:30:29.760Z,29.80
2022-08-17T10:33:03.156Z,29.86
2022-08-17T10:35:39.841Z,29.87
2022-08-17T10:38:38.405Z,29.99
2022-08-17T10:41:25.483Z,30.07
2022-08-17T10:44:39.608Z,30.10
2022-08-17T10:47:19.483Z,30.22
2022-08-17T10:49:57.188Z,30.38
2022-08-17T10:52:25.247Z,30.43
2022-08-17T10:54:58.328Z,30.49
2022-08-17T10:57:38.507Z,30.57
2022-08-17T11:00:17.064Z,30.46
2022-08-17T11:02:58.617Z,30.24
2022-08-17T11:05:55.193Z,30.39
2022-08-17T11:08:32.337Z,30.45
2022-08-17T11:11:14.626Z,30.58
2022-08-17T11:14:00.680Z,30.68
2022-08-17T11:17:07.549Z,30.80
2022-08-17T11:19:40.329Z,30.75
2022-08-17T11:22:33.502Z,30.72
2022-08-17T11:25:24.232Z,30.63
2022-08-17T11:27:54.805Z,30.76
2022-08-17T11:30:48.707Z,30.95
2022-08-17T11:33:38.279Z,31.04
2022-08-17T11:36:15.748Z,31.16
2022-08-17T11:39:06.373Z,31.17
2022-08-17T11:41:58.296Z,31.22
2022-08-17T11:44:57.682Z,31.28
2022-08-17T11:48:15.917Z,31.45
2022-08-17T11:51:12.163Z,31.53
2022-08-17T11:53:40.389Z,31.64
2022-08-17T11:56:32.986Z,31.72
2022-08-17T11:59:01.944Z,31.78
2022-08-17T12:01:48.152Z,31.76
2022-08-17T12:04:28.920Z,31.50
2022-08-17T12:07:00.984Z,31.40
2022-08-17T12:09:35.887Z,31.39
2022-08-17T12:12:15.871Z,31.28
2022-08-17T12:17:42.670Z,31.23
2022-08-17T12:20:38.409Z,31.26
2022-08-17T12:23:13.937Z,31.26
2022-08-17T12:25:57.896Z,31.06
2022-08-17T12:28:33.833Z,30.81
2022-08-17T12:31:05.595Z,30.57
2022-08-17T12:33:38.011Z,30.51
2022-08-17T12:36:15.988Z,30.58
2022-08-17T12:38:59.185Z,30.57
2022-08-17T12:41:52.008Z,30.75
2022-08-17T12:44:31.576Z,30.86
2022-08-17T12:47:08.251Z,31.09
2022-08-17T12:49:40.527Z,31.12
2022-08-17T12:52:21.297Z,31.15
2022-08-17T12:54:54.773Z,31.15
2022-08-17T12:57:34.084Z,31.33
2022-08-17T13:00:30.496Z,31.45
2022-08-17T13:03:07.189Z,31.48
2022-08-17T13:06:01.921Z,31.52
2022-08-17T13:08:39.695Z,31.44
2022-08-17T13:11:19.461Z,31.27
2022-08-17T13:13:55.976Z,31.14
2022-08-17T13:16:32.011Z,31.01
2022-08-17T13:19:14.037Z,30.84
2022-08-17T13:21:53.750Z,30.72
2022-08-17T13:24:47.180Z,30.64
2022-08-17T13:27:21.087Z,30.83
2022-08-17T13:29:54.621Z,30.90
2022-08-17T13:32:48.313Z,30.79
2022-08-17T13:35:47.100Z,30.79
2022-08-17T13:38:40.607Z,30.87
2022-08-17T13:41:32.496Z,30.95
2022-08-17T13:44:19.818Z,30.97
2022-08-17T13:46:55.912Z,31.01
2022-08-17T13:49:48.086Z,30.93
2022-08-17T13:52:52.577Z,30.94
2022-08-17T13:55:28.004Z,30.94
2022-08-17T13:58:06.634Z,30.98
2022-08-17T14:00:41.926Z,30.93
2022-08-17T14:03:09.922Z,30.96
2022-08-17T14:05:39.895Z,30.85
2022-08-17T14:08:12.810Z,30.83
2022-08-17T14:10:40.702Z,30.76
2022-08-17T14:13:12.313Z,30.64
2022-08-17T14:15:54.868Z,30.56
2022-08-17T14:18:56.870Z,30.53
2022-08-17T14:21:27.783Z,30.45
2022-08-17T14:23:59.338Z,30.38
2022-08-17T14:26:34.808Z,30.34
2022-08-17T14:29:02.944Z,30.21
2022-08-17T14:31:35.444Z,30.11
2022-08-17T14:34:06.210Z,30.00
2022-08-17T14:36:34.181Z,29.87
2022-08-17T14:39:06.761Z,29.81
2022-08-17T14:41:34.784Z,29.75
2022-08-17T14:44:02.828Z,29.64
2022-08-17T14:46:31.008Z,29.60
2022-08-17T14:49:04.052Z,29.48
2022-08-17T14:51:32.093Z,29.39
2022-08-17T14:54:07.046Z,29.28
2022-08-17T14:56:38.678Z,29.25
2022-08-17T14:59:09.341Z,29.21
2022-08-17T15:01:44.504Z,29.16
2022-08-17T15:04:19.835Z,29.07
2022-08-17T15:06:52.972Z,29.02
2022-08-17T15:09:23.847Z,28.92
2022-08-17T15:11:54.839Z,28.79
2022-08-17T15:14:22.979Z,28.71
2022-08-17T15:16:55.656Z,28.70
2022-08-17T15:19:29.293Z,28.69
2022-08-17T15:21:57.239Z,28.65
2022-08-17T15:24:25.095Z,28.61
2022-08-17T15:26:53.209Z,28.59
2022-08-17T15:29:25.954Z,28.58
2022-08-17T15:31:58.691Z,28.57
2022-08-17T15:34:28.523Z,28.55
2022-08-17T15:37:01.683Z,28.52
2022-08-17T15:39:29.957Z,28.52
2022-08-17T15:41:58.548Z,28.51
2022-08-17T15:44:34.835Z,28.50
2022-08-17T15:47:11.187Z,28.46
2022-08-17T15:49:41.746Z,28.44
2022-08-17T15:52:19.873Z,28.38
2022-08-17T15:54:58.643Z,28.33
2022-08-17T15:57:28.890Z,28.24
2022-08-17T16:00:01.811Z,28.21
2022-08-17T16:03:46.253Z,28.15
2022-08-17T16:05:31.728Z,28.11
2022-08-17T16:08:00.839Z,28.07
2022-08-17T16:10:35.187Z,28.00
2022-08-17T16:13:17.155Z,27.92
2022-08-17T16:15:51.122Z,27.86
2022-08-17T16:18:32.474Z,27.83
2022-08-17T16:21:43.228Z,27.80
2022-08-17T16:24:15.006Z,27.76
2022-08-17T16:26:45.984Z,27.69
2022-08-17T16:29:17.009Z,27.64
2022-08-17T16:31:49.304Z,27.59
2022-08-17T16:34:18.659Z,27.58
2022-08-17T16:36:54.836Z,27.57
2022-08-17T16:39:24.465Z,27.55
2022-08-17T16:41:54.953Z,27.50
2022-08-17T16:44:28.173Z,27.49
2022-08-17T16:47:02.202Z,27.44
2022-08-17T16:49:36.941Z,27.36
2022-08-17T16:52:11.291Z,27.31
2022-08-17T16:54:48.051Z,27.23
2022-08-17T16:57:17.143Z,27.17
2022-08-17T16:59:48.117Z,27.12
2022-08-17T17:02:40.436Z,27.07
2022-08-17T17:05:57.704Z,27.05
2022-08-17T17:08:53.447Z,26.98
2022-08-17T17:11:53.884Z,26.97
2022-08-17T17:14:24.065Z,26.96
2022-08-17T17:17:04.886Z,26.95
2022-08-17T17:19:42.945Z,26.96
2022-08-17T17:22:18.067Z,26.94
2022-08-17T17:25:15.581Z,26.92
2022-08-17T17:28:20.687Z,26.91
2022-08-17T17:31:07.283Z,26.93
2022-08-17T17:33:50.073Z,26.94
2022-08-17T17:36:34.941Z,26.90
2022-08-17T17:39:10.968Z,26.90
2022-08-17T17:41:43.345Z,26.91
2022-08-17T17:44:15.261Z,26.89
2022-08-17T17:46:55.947Z,26.87
2022-08-17T17:49:28.503Z,26.84
2022-08-17T17:52:40.274Z,26.80
2022-08-17T17:55:30.786Z,26.78
2022-08-17T17:58:34.591Z,26.77
2022-08-17T18:01:21.196Z,26.75
2022-08-17T18:04:00.648Z,26.70
2022-08-17T18:06:46.692Z,26.67
2022-08-17T18:09:20.527Z,26.59
2022-08-17T18:12:11.736Z,26.53
2022-08-17T18:15:00.911Z,26.45
2022-08-17T18:17:32.253Z,26.36
2022-08-17T18:20:00.341Z,26.31
2022-08-17T18:22:36.280Z,26.26
2022-08-17T18:25:06.840Z,26.18
2022-08-17T18:27:40.824Z,26.13
2022-08-17T18:30:14.572Z,26.08
2022-08-17T18:32:47.624Z,26.04
2022-08-17T18:35:30.336Z,25.99
2022-08-17T18:38:22.993Z,25.95
2022-08-17T18:41:31.538Z,25.89
2022-08-17T18:44:06.556Z,25.85
2022-08-17T18:46:37.992Z,25.80
2022-08-17T18:49:26.890Z,25.76
2022-08-17T18:52:11.203Z,25.70
2022-08-17T18:54:44.265Z,25.64
2022-08-17T18:57:12.162Z,25.58
2022-08-17T18:59:49.535Z,25.50
2022-08-17T19:02:43.419Z,25.46
2022-08-17T19:05:41.187Z,25.38
2022-08-17T19:08:22.019Z,25.29
2022-08-17T19:10:56.061Z,25.20
2022-08-17T19:13:33.580Z,25.15
2022-08-17T19:16:26.355Z,25.10
2022-08-17T19:19:13.655Z,25.04
2022-08-17T19:22:07.788Z,24.95
2022-08-17T19:24:45.254Z,24.92
2022-08-17T19:27:19.536Z,24.87
2022-08-17T19:29:56.489Z,24.84
2022-08-17T19:32:27.688Z,24.80
2022-08-17T19:34:56.430Z,24.79
2022-08-17T19:38:01.940Z,24.76
2022-08-17T19:40:53.585Z,24.73
2022-08-17T19:43:48.386Z,24.72
2022-08-17T19:46:30.712Z,24.71
2022-08-17T19:49:05.904Z,24.66
2022-08-17T19:51:48.043Z,24.63
2022-08-17T19:54:35.016Z,24.61
2022-08-17T19:57:11.557Z,24.63
2022-08-17T19:59:55.509Z,24.59
2022-08-17T20:02:32.117Z,24.58
2022-08-17T20:05:08.621Z,24.56
2022-08-17T20:08:02.965Z,24.53
2022-08-17T20:10:39.498Z,24.47
2022-08-17T20:13:15.337Z,24.45
2022-08-17T20:15:45.621Z,24.38
2022-08-17T20:18:20.761Z,24.42
2022-08-17T20:20:56.953Z,24.41
2022-08-17T20:23:36.942Z,24.37
2022-08-17T20:26:20.185Z,24.38
2022-08-17T20:29:08.828Z,24.43
2022-08-17T20:31:46.611Z,24.45
2022-08-17T20:34:38.185Z,24.40
2022-08-17T20:37:25.537Z,24.35
2022-08-17T20:39:56.035Z,24.32
2022-08-17T20:42:23.815Z,24.25
2022-08-17T20:45:06.552Z,24.17
2022-08-17T20:48:07.783Z,24.10
2022-08-17T20:50:46.584Z,23.93
2022-08-17T20:53:54.613Z,23.79
2022-08-17T20:56:50.400Z,23.47
2022-08-17T20:59:27.060Z,23.23
2022-08-17T21:02:17.673Z,23.04
2022-08-17T21:05:06.958Z,22.92
2022-08-17T21:07:43.489Z,22.38
2022-08-17T21:10:29.310Z,22.01
2022-08-17T21:13:09.677Z,21.50
2022-08-17T21:15:48.075Z,20.98
2022-08-17T21:18:39.895Z,20.96
2022-08-17T21:21:20.575Z,21.03
2022-08-17T21:24:23.089Z,20.99
2022-08-17T21:27:38.532Z,20.96
2022-08-17T21:30:10.002Z,20.91
2022-08-17T21:33:06.330Z,20.80
2022-08-17T21:35:48.492Z,20.77
2022-08-17T21:38:19.352Z,20.72
2022-08-17T21:40:51.641Z,20.66
2022-08-17T21:43:37.615Z,20.65
2022-08-17T21:46:14.673Z,20.63
2022-08-17T21:48:48.342Z,20.63
2022-08-17T21:51:22.216Z,20.62
2022-08-17T21:56:42.214Z,20.52
2022-08-17T21:59:28.442Z,20.50
2022-08-17T22:01:58.730Z,20.49
2022-08-17T22:04:33.449Z,20.50
2022-08-17T22:07:07.863Z,20.49
2022-08-17T22:09:43.746Z,20.43
2022-08-17T22:12:15.656Z,20.39
2022-08-17T22:14:53.962Z,20.38
2022-08-17T22:17:51.635Z,20.35
2022-08-17T22:20:20.303Z,20.32
2022-08-17T22:23:09.766Z,20.31
2022-08-17T22:25:54.322Z,20.13
2022-08-17T22:28:44.248Z,19.92
2022-08-17T22:31:14.474Z,19.78
2022-08-17T22:33:50.680Z,19.85
2022-08-17T22:36:31.298Z,19.89
2022-08-17T22:39:21.785Z,19.83
2022-08-17T22:41:52.936Z,19.83
2022-08-17T22:44:38.631Z,19.81
2022-08-17T22:47:19.940Z,19.81
2022-08-17T22:49:54.125Z,19.75
2022-08-17T22:52:35.572Z,19.71
2022-08-17T22:55:33.700Z,19.59
2022-08-17T22:58:20.352Z,19.52
2022-08-17T23:00:54.429Z,19.38
2022-08-17T23:03:26.827Z,19.25
2022-08-17T23:06:14.653Z,19.21
2022-08-17T23:09:00.574Z,19.15
2022-08-17T23:11:49.774Z,19.09
2022-08-17T23:14:20.891Z,19.03
2022-08-17T23:16:54.893Z,19.12
2022-08-17T23:19:33.381Z,19.18
2022-08-17T23:22:02.107Z,19.02
2022-08-17T23:24:31.668Z,19.11
2022-08-17T23:27:00.094Z,19.13
2022-08-17T23:29:30.800Z,19.00
2022-08-17T23:32:00.782Z,19.07
2022-08-17T23:34:29.138Z,19.15
2022-08-17T23:37:01.789Z,19.23
2022-08-17T23:39:37.707Z,19.24
2022-08-17T23:42:10.810Z,19.16
2022-08-17T23:44:42.703Z,19.13
2022-08-17T23:47:11.232Z,19.09
2022-08-17T23:49:39.836Z,19.06
2022-08-17T23:52:08.963Z,19.01
2022-08-17T23:54:44.936Z,19.01
2022-08-17T23:57:19.985Z,19.06
